sensor_id;sensor_type;location;lat;lon;timestamp;P1;durP1;ratioP1;P2;durP2;ratioP2
21392;SDS011;10857;52.228;21.026;2023-04-06T05:55:51;20.10;;;7.27;;
21392;SDS011;10857;52.228;21.026;2023-04-06T05:58:25;21.70;;;8.40;;
21392;SDS011;10857;52.228;21.026;2023-04-06T06:00:57;38.83;;;9.53;;
21392;SDS011;10857;52.228;21.026;2023-04-06T06:03:27;21.00;;;7.87;;
21392;SDS011;10857;52.228;21.026;2023-04-06T06:06:00;17.40;;;7.47;;
21392;SDS011;10857;52.228;21.026;2023-04-06T06:08:40;19.67;;;8.47;;
21392;SDS011;10857;52.228;21.026;2023-04-06T06:11:12;14.97;;;7.20;;
21392;SDS011;10857;52.228;21.026;2023-04-06T06:13:40;15.03;;;6.97;;
21392;SDS011;10857;52.228;21.026;2023-04-06T06:16:08;16.27;;;7.37;;
21392;SDS011;10857;52.228;21.026;2023-04-06T06:18:42;22.03;;;7.93;;
21392;SDS011;10857;52.228;21.026;2023-04-06T06:21:12;29.60;;;7.80;;
21392;SDS011;10857;52.228;21.026;2023-04-06T06:23:41;44.47;;;9.90;;
21392;SDS011;10857;52.228;21.026;2023-04-06T06:26:13;22.00;;;6.50;;
21392;SDS011;10857;52.228;21.026;2023-04-06T06:28:41;25.47;;;7.30;;
21392;SDS011;10857;52.228;21.026;2023-04-06T06:31:10;124.80;;;14.17;;
21392;SDS011;10857;52.228;21.026;2023-04-06T06:33:43;19.70;;;5.77;;
21392;SDS011;10857;52.228;21.026;2023-04-06T06:36:11;13.53;;;4.83;;
21392;SDS011;10857;52.228;21.026;2023-04-06T06:38:39;10.13;;;4.87;;
21392;SDS011;10857;52.228;21.026;2023-04-06T06:41:11;9.80;;;4.57;;
21392;SDS011;10857;52.228;21.026;2023-04-06T06:43:38;8.73;;;4.80;;
21392;SDS011;10857;52.228;21.026;2023-04-06T06:46:08;9.50;;;4.83;;
21392;SDS011;10857;52.228;21.026;2023-04-06T06:48:35;32.83;;;5.67;;
21392;SDS011;10857;52.228;21.026;2023-04-06T06:51:03;10.90;;;5.20;;
21392;SDS011;10857;52.228;21.026;2023-04-06T06:53:30;18.37;;;5.40;;
21392;SDS011;10857;52.228;21.026;2023-04-06T06:55:57;10.07;;;4.47;;
21392;SDS011;10857;52.228;21.026;2023-04-06T06:58:25;10.13;;;4.47;;
21392;SDS011;10857;52.228;21.026;2023-04-06T07:00:56;9.47;;;4.23;;
21392;SDS011;10857;52.228;21.026;2023-04-06T07:03:24;13.03;;;4.53;;
21392;SDS011;10857;52.228;21.026;2023-04-06T07:05:53;9.73;;;4.20;;
21392;SDS011;10857;52.228;21.026;2023-04-06T07:08:23;9.13;;;4.00;;
21392;SDS011;10857;52.228;21.026;2023-04-06T07:10:51;9.87;;;3.90;;
21392;SDS011;10857;52.228;21.026;2023-04-06T07:13:19;7.63;;;3.83;;
21392;SDS011;10857;52.228;21.026;2023-04-06T07:15:52;10.68;;;4.43;;
21392;SDS011;10857;52.228;21.026;2023-04-06T07:18:19;8.33;;;4.00;;
21392;SDS011;10857;52.228;21.026;2023-04-06T07:20:47;13.57;;;4.23;;
21392;SDS011;10857;52.228;21.026;2023-04-06T07:23:15;7.53;;;4.30;;
21392;SDS011;10857;52.228;21.026;2023-04-06T07:25:43;13.80;;;4.07;;
21392;SDS011;10857;52.228;21.026;2023-04-06T07:28:11;11.27;;;4.20;;
21392;SDS011;10857;52.228;21.026;2023-04-06T07:30:39;10.10;;;4.00;;
21392;SDS011;10857;52.228;21.026;2023-04-06T07:33:08;13.20;;;4.03;;
21392;SDS011;10857;52.228;21.026;2023-04-06T07:35:36;9.30;;;4.13;;
21392;SDS011;10857;52.228;21.026;2023-04-06T07:38:05;45.30;;;6.67;;
21392;SDS011;10857;52.228;21.026;2023-04-06T07:40:33;17.13;;;4.57;;
21392;SDS011;10857;52.228;21.026;2023-04-06T07:43:01;10.10;;;4.43;;
21392;SDS011;10857;52.228;21.026;2023-04-06T07:45:33;9.00;;;4.33;;
21392;SDS011;10857;52.228;21.026;2023-04-06T07:48:01;11.57;;;4.20;;
21392;SDS011;10857;52.228;21.026;2023-04-06T07:50:30;9.47;;;4.03;;
21392;SDS011;10857;52.228;21.026;2023-04-06T07:52:58;10.97;;;4.23;;
21392;SDS011;10857;52.228;21.026;2023-04-06T07:55:26;8.63;;;4.37;;
21392;SDS011;10857;52.228;21.026;2023-04-06T07:57:54;7.70;;;4.17;;
21392;SDS011;10857;52.228;21.026;2023-04-06T08:00:21;11.80;;;4.43;;
21392;SDS011;10857;52.228;21.026;2023-04-06T08:02:49;9.10;;;4.63;;
21392;SDS011;10857;52.228;21.026;2023-04-06T08:05:16;11.40;;;4.63;;
21392;SDS011;10857;52.228;21.026;2023-04-06T08:07:44;15.83;;;5.13;;
21392;SDS011;10857;52.228;21.026;2023-04-06T08:10:11;7.93;;;4.40;;
21392;SDS011;10857;52.228;21.026;2023-04-06T08:12:39;11.70;;;4.30;;
21392;SDS011;10857;52.228;21.026;2023-04-06T08:15:06;14.77;;;5.00;;
21392;SDS011;10857;52.228;21.026;2023-04-06T08:17:34;9.33;;;4.90;;
21392;SDS011;10857;52.228;21.026;2023-04-06T08:20:01;10.03;;;4.57;;
21392;SDS011;10857;52.228;21.026;2023-04-06T08:22:30;10.57;;;4.20;;
21392;SDS011;10857;52.228;21.026;2023-04-06T08:24:57;12.30;;;4.83;;
21392;SDS011;10857;52.228;21.026;2023-04-06T08:27:24;18.00;;;5.00;;
21392;SDS011;10857;52.228;21.026;2023-04-06T08:29:52;10.27;;;4.90;;
21392;SDS011;10857;52.228;21.026;2023-04-06T08:32:20;11.53;;;4.70;;
21392;SDS011;10857;52.228;21.026;2023-04-06T08:34:47;9.90;;;4.63;;
21392;SDS011;10857;52.228;21.026;2023-04-06T08:37:14;11.87;;;4.60;;
21392;SDS011;10857;52.228;21.026;2023-04-06T08:39:42;10.43;;;4.50;;
21392;SDS011;10857;52.228;21.026;2023-04-06T08:42:12;9.90;;;4.60;;
21392;SDS011;10857;52.228;21.026;2023-04-06T08:44:45;12.07;;;5.10;;
21392;SDS011;10857;52.228;21.026;2023-04-06T08:47:16;16.60;;;4.90;;
21392;SDS011;10857;52.228;21.026;2023-04-06T08:49:44;11.80;;;4.80;;
21392;SDS011;10857;52.228;21.026;2023-04-06T08:52:11;26.33;;;5.90;;
21392;SDS011;10857;52.228;21.026;2023-04-06T08:54:39;16.47;;;5.30;;
21392;SDS011;10857;52.228;21.026;2023-04-06T08:57:06;10.20;;;4.80;;
21392;SDS011;10857;52.228;21.026;2023-04-06T08:59:34;12.70;;;4.77;;
21392;SDS011;10857;52.228;21.026;2023-04-06T09:02:03;19.47;;;5.40;;
21392;SDS011;10857;52.228;21.026;2023-04-06T09:04:32;14.83;;;5.17;;
21392;SDS011;10857;52.228;21.026;2023-04-06T09:07:00;11.10;;;5.20;;
21392;SDS011;10857;52.228;21.026;2023-04-06T09:09:27;13.37;;;5.70;;
21392;SDS011;10857;52.228;21.026;2023-04-06T09:11:55;10.13;;;5.00;;
21392;SDS011;10857;52.228;21.026;2023-04-06T09:14:34;11.53;;;5.13;;
21392;SDS011;10857;52.228;21.026;2023-04-06T09:17:03;73.33;;;9.87;;
21392;SDS011;10857;52.228;21.026;2023-04-06T09:19:30;58.67;;;9.63;;
21392;SDS011;10857;52.228;21.026;2023-04-06T09:22:04;10.70;;;5.23;;
21392;SDS011;10857;52.228;21.026;2023-04-06T09:27:08;11.47;;;5.10;;
21392;SDS011;10857;52.228;21.026;2023-04-06T09:29:35;11.57;;;5.33;;
21392;SDS011;10857;52.228;21.026;2023-04-06T09:32:06;30.93;;;6.20;;
21392;SDS011;10857;52.228;21.026;2023-04-06T09:34:34;29.57;;;6.07;;
21392;SDS011;10857;52.228;21.026;2023-04-06T09:37:11;11.17;;;5.60;;
21392;SDS011;10857;52.228;21.026;2023-04-06T09:39:39;10.27;;;5.70;;
21392;SDS011;10857;52.228;21.026;2023-04-06T09:42:06;11.53;;;5.70;;
21392;SDS011;10857;52.228;21.026;2023-04-06T09:44:33;12.43;;;5.40;;
21392;SDS011;10857;52.228;21.026;2023-04-06T09:47:01;14.53;;;5.73;;
21392;SDS011;10857;52.228;21.026;2023-04-06T09:49:32;14.13;;;5.83;;
21392;SDS011;10857;52.228;21.026;2023-04-06T09:52:03;23.03;;;6.87;;
21392;SDS011;10857;52.228;21.026;2023-04-06T09:54:31;16.40;;;6.57;;
21392;SDS011;10857;52.228;21.026;2023-04-06T09:57:11;15.97;;;6.53;;
21392;SDS011;10857;52.228;21.026;2023-04-06T10:07:48;14.00;;;5.77;;
21392;SDS011;10857;52.228;21.026;2023-04-06T10:10:27;10.90;;;6.10;;
21392;SDS011;10857;52.228;21.026;2023-04-06T10:12:55;56.70;;;10.23;;
21392;SDS011;10857;52.228;21.026;2023-04-06T10:15:23;39.70;;;9.30;;
21392;SDS011;10857;52.228;21.026;2023-04-06T10:17:50;14.87;;;9.70;;
21392;SDS011;10857;52.228;21.026;2023-04-06T10:20:29;17.03;;;9.87;;
21392;SDS011;10857;52.228;21.026;2023-04-06T10:25:55;36.40;;;13.07;;
21392;SDS011;10857;52.228;21.026;2023-04-06T10:28:23;28.97;;;10.80;;
21392;SDS011;10857;52.228;21.026;2023-04-06T10:30:59;17.83;;;9.70;;
21392;SDS011;10857;52.228;21.026;2023-04-06T10:33:27;22.20;;;10.87;;
21392;SDS011;10857;52.228;21.026;2023-04-06T10:35:55;19.67;;;10.40;;
21392;SDS011;10857;52.228;21.026;2023-04-06T10:38:36;19.50;;;10.43;;
21392;SDS011;10857;52.228;21.026;2023-04-06T10:41:08;21.13;;;11.60;;
21392;SDS011;10857;52.228;21.026;2023-04-06T10:43:36;19.20;;;10.07;;
21392;SDS011;10857;52.228;21.026;2023-04-06T10:46:04;20.90;;;12.70;;
21392;SDS011;10857;52.228;21.026;2023-04-06T10:48:36;21.93;;;11.63;;
21392;SDS011;10857;52.228;21.026;2023-04-06T10:51:07;28.00;;;12.97;;
21392;SDS011;10857;52.228;21.026;2023-04-06T10:53:34;21.37;;;11.60;;
21392;SDS011;10857;52.228;21.026;2023-04-06T10:56:03;19.73;;;11.27;;
21392;SDS011;10857;52.228;21.026;2023-04-06T10:58:31;18.57;;;11.77;;
21392;SDS011;10857;52.228;21.026;2023-04-06T11:00:59;19.10;;;12.07;;
21392;SDS011;10857;52.228;21.026;2023-04-06T11:03:27;17.60;;;9.77;;
21392;SDS011;10857;52.228;21.026;2023-04-06T11:05:56;18.67;;;9.83;;
21392;SDS011;10857;52.228;21.026;2023-04-06T11:08:29;20.23;;;9.60;;
21392;SDS011;10857;52.228;21.026;2023-04-06T11:11:03;19.03;;;10.93;;
21392;SDS011;10857;52.228;21.026;2023-04-06T11:13:50;17.07;;;10.73;;
21392;SDS011;10857;52.228;21.026;2023-04-06T11:16:21;17.83;;;10.90;;
21392;SDS011;10857;52.228;21.026;2023-04-06T11:24:04;23.60;;;12.87;;
21392;SDS011;10857;52.228;21.026;2023-04-06T11:26:36;17.13;;;11.00;;
21392;SDS011;10857;52.228;21.026;2023-04-06T11:29:04;18.80;;;10.70;;
21392;SDS011;10857;52.228;21.026;2023-04-06T11:31:37;16.07;;;10.50;;
21392;SDS011;10857;52.228;21.026;2023-04-06T11:34:11;20.53;;;11.00;;
21392;SDS011;10857;52.228;21.026;2023-04-06T11:36:42;17.77;;;10.53;;
21392;SDS011;10857;52.228;21.026;2023-04-06T11:39:10;18.17;;;10.10;;
21392;SDS011;10857;52.228;21.026;2023-04-06T11:41:37;52.10;;;14.43;;
21392;SDS011;10857;52.228;21.026;2023-04-06T11:44:06;84.80;;;19.43;;
21392;SDS011;10857;52.228;21.026;2023-04-06T11:46:33;18.23;;;9.80;;
21392;SDS011;10857;52.228;21.026;2023-04-06T11:49:01;15.80;;;9.13;;
21392;SDS011;10857;52.228;21.026;2023-04-06T11:51:29;41.50;;;11.17;;
21392;SDS011;10857;52.228;21.026;2023-04-06T11:53:57;18.73;;;8.90;;
21392;SDS011;10857;52.228;21.026;2023-04-06T11:56:28;24.83;;;9.50;;
21392;SDS011;10857;52.228;21.026;2023-04-06T11:58:56;15.37;;;8.43;;
21392;SDS011;10857;52.228;21.026;2023-04-06T12:01:29;13.77;;;7.90;;
21392;SDS011;10857;52.228;21.026;2023-04-06T12:04:02;16.17;;;8.20;;
21392;SDS011;10857;52.228;21.026;2023-04-06T12:06:30;14.17;;;8.70;;
21392;SDS011;10857;52.228;21.026;2023-04-06T12:08:57;29.97;;;9.63;;
21392;SDS011;10857;52.228;21.026;2023-04-06T12:11:25;21.30;;;8.10;;
21392;SDS011;10857;52.228;21.026;2023-04-06T12:13:53;15.13;;;7.90;;
21392;SDS011;10857;52.228;21.026;2023-04-06T12:16:21;28.47;;;9.37;;
21392;SDS011;10857;52.228;21.026;2023-04-06T12:18:50;15.50;;;7.93;;
21392;SDS011;10857;52.228;21.026;2023-04-06T12:21:18;19.80;;;8.07;;
21392;SDS011;10857;52.228;21.026;2023-04-06T12:23:47;16.17;;;8.53;;
21392;SDS011;10857;52.228;21.026;2023-04-06T12:26:14;15.83;;;8.10;;
21392;SDS011;10857;52.228;21.026;2023-04-06T12:28:42;13.23;;;8.03;;
21392;SDS011;10857;52.228;21.026;2023-04-06T12:31:17;18.70;;;10.00;;
21392;SDS011;10857;52.228;21.026;2023-04-06T12:33:48;13.70;;;8.53;;
21392;SDS011;10857;52.228;21.026;2023-04-06T12:36:18;16.30;;;9.03;;
21392;SDS011;10857;52.228;21.026;2023-04-06T12:38:48;15.67;;;7.50;;
21392;SDS011;10857;52.228;21.026;2023-04-06T12:41:17;15.50;;;7.93;;
21392;SDS011;10857;52.228;21.026;2023-04-06T12:43:45;16.90;;;8.83;;
21392;SDS011;10857;52.228;21.026;2023-04-06T12:46:14;12.97;;;7.30;;
21392;SDS011;10857;52.228;21.026;2023-04-06T12:48:43;22.40;;;8.50;;
21392;SDS011;10857;52.228;21.026;2023-04-06T12:51:12;11.90;;;7.17;;
21392;SDS011;10857;52.228;21.026;2023-04-06T12:53:40;12.60;;;7.10;;
21392;SDS011;10857;52.228;21.026;2023-04-06T12:56:11;10.07;;;6.20;;
21392;SDS011;10857;52.228;21.026;2023-04-06T13:02:26;12.70;;;6.70;;
21392;SDS011;10857;52.228;21.026;2023-04-06T13:04:55;12.67;;;6.97;;
21392;SDS011;10857;52.228;21.026;2023-04-06T13:07:24;26.43;;;9.13;;
21392;SDS011;10857;52.228;21.026;2023-04-06T13:09:51;13.57;;;7.23;;
21392;SDS011;10857;52.228;21.026;2023-04-06T13:12:20;28.00;;;8.47;;
21392;SDS011;10857;52.228;21.026;2023-04-06T13:14:48;16.90;;;6.33;;
21392;SDS011;10857;52.228;21.026;2023-04-06T13:17:19;14.20;;;6.83;;
21392;SDS011;10857;52.228;21.026;2023-04-06T13:19:47;11.63;;;6.80;;
21392;SDS011;10857;52.228;21.026;2023-04-06T13:22:15;11.50;;;6.47;;
21392;SDS011;10857;52.228;21.026;2023-04-06T13:24:43;11.60;;;6.57;;
21392;SDS011;10857;52.228;21.026;2023-04-06T13:27:11;12.67;;;7.40;;
21392;SDS011;10857;52.228;21.026;2023-04-06T13:29:39;18.40;;;8.60;;
21392;SDS011;10857;52.228;21.026;2023-04-06T13:32:08;22.37;;;8.70;;
21392;SDS011;10857;52.228;21.026;2023-04-06T13:34:36;13.80;;;7.20;;
21392;SDS011;10857;52.228;21.026;2023-04-06T13:37:04;13.37;;;8.43;;
21392;SDS011;10857;52.228;21.026;2023-04-06T13:39:31;48.53;;;12.43;;
21392;SDS011;10857;52.228;21.026;2023-04-06T13:41:59;13.40;;;7.40;;
21392;SDS011;10857;52.228;21.026;2023-04-06T13:44:29;12.87;;;6.77;;
21392;SDS011;10857;52.228;21.026;2023-04-06T13:46:56;14.87;;;7.20;;
21392;SDS011;10857;52.228;21.026;2023-04-06T13:49:24;15.00;;;7.17;;
21392;SDS011;10857;52.228;21.026;2023-04-06T13:51:51;11.63;;;6.50;;
21392;SDS011;10857;52.228;21.026;2023-04-06T13:54:19;12.23;;;6.80;;
21392;SDS011;10857;52.228;21.026;2023-04-06T13:56:47;11.20;;;6.73;;
21392;SDS011;10857;52.228;21.026;2023-04-06T13:59:14;10.57;;;6.27;;
21392;SDS011;10857;52.228;21.026;2023-04-06T14:01:42;14.07;;;7.10;;
21392;SDS011;10857;52.228;21.026;2023-04-06T14:04:09;13.03;;;7.00;;
21392;SDS011;10857;52.228;21.026;2023-04-06T14:06:37;12.50;;;7.17;;
21392;SDS011;10857;52.228;21.026;2023-04-06T14:09:05;17.80;;;10.33;;
21392;SDS011;10857;52.228;21.026;2023-04-06T14:11:32;12.13;;;6.80;;
21392;SDS011;10857;52.228;21.026;2023-04-06T14:14:00;12.77;;;6.97;;
21392;SDS011;10857;52.228;21.026;2023-04-06T14:16:28;13.77;;;7.73;;
21392;SDS011;10857;52.228;21.026;2023-04-06T14:18:56;12.07;;;7.17;;
21392;SDS011;10857;52.228;21.026;2023-04-06T14:21:24;13.27;;;7.17;;
21392;SDS011;10857;52.228;21.026;2023-04-06T14:23:52;11.63;;;7.27;;
21392;SDS011;10857;52.228;21.026;2023-04-06T14:26:22;13.10;;;7.50;;
21392;SDS011;10857;52.228;21.026;2023-04-06T14:28:49;11.73;;;7.60;;
21392;SDS011;10857;52.228;21.026;2023-04-06T14:31:18;12.73;;;7.43;;
21392;SDS011;10857;52.228;21.026;2023-04-06T14:33:48;13.70;;;7.63;;
21392;SDS011;10857;52.228;21.026;2023-04-06T14:36:19;13.50;;;7.63;;
21392;SDS011;10857;52.228;21.026;2023-04-06T14:38:49;11.87;;;7.50;;
21392;SDS011;10857;52.228;21.026;2023-04-06T14:41:22;13.97;;;7.77;;
21392;SDS011;10857;52.228;21.026;2023-04-06T17:34:08;20.57;;;10.97;;
21392;SDS011;10857;52.228;21.026;2023-04-06T17:36:36;21.07;;;11.10;;
21392;SDS011;10857;52.228;21.026;2023-04-06T17:39:04;18.60;;;10.37;;
21392;SDS011;10857;52.228;21.026;2023-04-06T17:41:31;23.83;;;13.97;;
21392;SDS011;10857;52.228;21.026;2023-04-06T17:44:00;20.67;;;11.07;;
21392;SDS011;10857;52.228;21.026;2023-04-06T17:46:27;23.30;;;10.67;;
21392;SDS011;10857;52.228;21.026;2023-04-06T17:48:54;19.73;;;11.07;;
21392;SDS011;10857;52.228;21.026;2023-04-06T17:51:22;22.17;;;11.50;;
21392;SDS011;10857;52.228;21.026;2023-04-06T17:53:50;19.63;;;11.27;;
21392;SDS011;10857;52.228;21.026;2023-04-06T17:56:17;22.13;;;11.03;;
21392;SDS011;10857;52.228;21.026;2023-04-06T17:58:45;22.10;;;11.53;;
21392;SDS011;10857;52.228;21.026;2023-04-06T18:01:12;22.60;;;11.30;;
21392;SDS011;10857;52.228;21.026;2023-04-06T18:03:40;21.53;;;11.83;;
21392;SDS011;10857;52.228;21.026;2023-04-06T18:06:13;20.20;;;11.47;;
21392;SDS011;10857;52.228;21.026;2023-04-06T18:08:41;18.87;;;11.07;;
21392;SDS011;10857;52.228;21.026;2023-04-06T18:11:18;20.87;;;12.03;;
21392;SDS011;10857;52.228;21.026;2023-04-06T18:13:50;20.87;;;12.03;;
21392;SDS011;10857;52.228;21.026;2023-04-06T18:16:18;23.17;;;13.13;;
21392;SDS011;10857;52.228;21.026;2023-04-06T18:18:46;23.83;;;12.77;;
21392;SDS011;10857;52.228;21.026;2023-04-06T18:21:14;24.70;;;12.17;;
21392;SDS011;10857;52.228;21.026;2023-04-06T18:23:42;23.20;;;12.60;;
21392;SDS011;10857;52.228;21.026;2023-04-06T18:26:13;22.10;;;12.17;;
21392;SDS011;10857;52.228;21.026;2023-04-06T18:28:42;20.47;;;12.27;;
21392;SDS011;10857;52.228;21.026;2023-04-06T18:31:10;21.50;;;12.87;;
21392;SDS011;10857;52.228;21.026;2023-04-06T18:33:37;23.33;;;13.20;;
21392;SDS011;10857;52.228;21.026;2023-04-06T18:36:04;23.87;;;12.53;;
21392;SDS011;10857;52.228;21.026;2023-04-06T18:38:32;21.43;;;13.17;;
21392;SDS011;10857;52.228;21.026;2023-04-06T18:40:59;21.87;;;12.47;;
21392;SDS011;10857;52.228;21.026;2023-04-06T18:43:27;21.03;;;11.97;;
21392;SDS011;10857;52.228;21.026;2023-04-06T18:45:54;21.30;;;12.03;;
21392;SDS011;10857;52.228;21.026;2023-04-06T18:48:22;22.77;;;12.60;;
21392;SDS011;10857;52.228;21.026;2023-04-06T18:50:56;22.73;;;12.23;;
21392;SDS011;10857;52.228;21.026;2023-04-06T18:53:27;22.93;;;12.77;;
21392;SDS011;10857;52.228;21.026;2023-04-06T18:55:55;22.90;;;12.67;;
21392;SDS011;10857;52.228;21.026;2023-04-06T18:58:23;19.80;;;11.63;;
21392;SDS011;10857;52.228;21.026;2023-04-06T19:00:53;21.10;;;12.10;;
21392;SDS011;10857;52.228;21.026;2023-04-06T19:03:22;23.13;;;12.60;;
21392;SDS011;10857;52.228;21.026;2023-04-06T19:05:50;21.90;;;12.53;;
21392;SDS011;10857;52.228;21.026;2023-04-06T19:08:17;21.43;;;12.60;;
21392;SDS011;10857;52.228;21.026;2023-04-06T19:10:45;25.77;;;13.87;;
21392;SDS011;10857;52.228;21.026;2023-04-06T19:13:14;22.63;;;13.53;;
21392;SDS011;10857;52.228;21.026;2023-04-06T19:15:42;23.17;;;12.87;;
21392;SDS011;10857;52.228;21.026;2023-04-06T19:18:09;22.70;;;12.57;;
21392;SDS011;10857;52.228;21.026;2023-04-06T19:20:36;22.70;;;13.57;;
21392;SDS011;10857;52.228;21.026;2023-04-06T19:23:04;24.03;;;13.83;;
21392;SDS011;10857;52.228;21.026;2023-04-06T19:25:31;23.17;;;13.57;;
21392;SDS011;10857;52.228;21.026;2023-04-06T19:27:59;23.03;;;13.20;;
21392;SDS011;10857;52.228;21.026;2023-04-06T19:30:26;23.80;;;13.60;;
21392;SDS011;10857;52.228;21.026;2023-04-06T19:32:54;21.87;;;12.67;;
21392;SDS011;10857;52.228;21.026;2023-04-06T19:35:21;22.33;;;13.03;;
21392;SDS011;10857;52.228;21.026;2023-04-06T19:37:49;21.90;;;12.13;;
21392;SDS011;10857;52.228;21.026;2023-04-06T19:40:18;22.87;;;12.93;;
21392;SDS011;10857;52.228;21.026;2023-04-06T19:42:46;22.33;;;13.20;;
21392;SDS011;10857;52.228;21.026;2023-04-06T19:45:13;19.67;;;12.17;;
21392;SDS011;10857;52.228;21.026;2023-04-06T19:47:41;19.77;;;12.53;;
21392;SDS011;10857;52.228;21.026;2023-04-06T19:50:08;21.50;;;12.30;;
21392;SDS011;10857;52.228;21.026;2023-04-06T19:52:36;20.87;;;12.50;;
21392;SDS011;10857;52.228;21.026;2023-04-06T19:55:04;22.07;;;12.33;;
21392;SDS011;10857;52.228;21.026;2023-04-06T19:57:31;20.93;;;11.73;;
21392;SDS011;10857;52.228;21.026;2023-04-06T19:59:59;25.83;;;12.40;;
21392;SDS011;10857;52.228;21.026;2023-04-06T20:02:34;21.97;;;12.87;;
21392;SDS011;10857;52.228;21.026;2023-04-06T20:05:02;24.57;;;13.00;;
21392;SDS011;10857;52.228;21.026;2023-04-06T20:07:29;22.60;;;13.50;;
21392;SDS011;10857;52.228;21.026;2023-04-06T20:09:57;22.53;;;13.43;;
21392;SDS011;10857;52.228;21.026;2023-04-06T20:12:27;22.30;;;13.40;;
21392;SDS011;10857;52.228;21.026;2023-04-06T20:14:54;21.23;;;13.33;;
21392;SDS011;10857;52.228;21.026;2023-04-06T20:17:22;23.90;;;13.23;;
21392;SDS011;10857;52.228;21.026;2023-04-06T20:19:50;22.73;;;12.90;;
21392;SDS011;10857;52.228;21.026;2023-04-06T20:22:19;22.70;;;12.63;;
21392;SDS011;10857;52.228;21.026;2023-04-06T20:24:46;21.87;;;12.90;;
21392;SDS011;10857;52.228;21.026;2023-04-06T20:27:16;21.87;;;12.93;;
21392;SDS011;10857;52.228;21.026;2023-04-06T20:32:44;21.60;;;13.00;;
21392;SDS011;10857;52.228;21.026;2023-04-06T20:35:12;22.93;;;13.90;;
21392;SDS011;10857;52.228;21.026;2023-04-06T20:37:40;23.43;;;12.93;;
21392;SDS011;10857;52.228;21.026;2023-04-06T20:40:08;24.30;;;14.00;;
21392;SDS011;10857;52.228;21.026;2023-04-06T20:42:38;25.30;;;14.00;;
21392;SDS011;10857;52.228;21.026;2023-04-06T20:45:07;47.73;;;22.80;;
21392;SDS011;10857;52.228;21.026;2023-04-06T20:47:34;23.90;;;13.70;;
21392;SDS011;10857;52.228;21.026;2023-04-06T20:50:02;26.73;;;15.17;;
21392;SDS011;10857;52.228;21.026;2023-04-06T20:52:29;25.67;;;14.63;;
21392;SDS011;10857;52.228;21.026;2023-04-06T20:54:58;27.40;;;15.33;;
21392;SDS011;10857;52.228;21.026;2023-04-06T20:57:26;27.27;;;15.77;;
21392;SDS011;10857;52.228;21.026;2023-04-06T20:59:53;27.87;;;16.37;;
21392;SDS011;10857;52.228;21.026;2023-04-06T21:02:21;29.23;;;15.87;;
21392;SDS011;10857;52.228;21.026;2023-04-06T21:04:49;29.90;;;15.60;;
21392;SDS011;10857;52.228;21.026;2023-04-06T21:07:16;30.93;;;16.03;;
21392;SDS011;10857;52.228;21.026;2023-04-06T21:09:44;31.07;;;17.10;;
21392;SDS011;10857;52.228;21.026;2023-04-06T21:12:12;32.33;;;17.33;;
21392;SDS011;10857;52.228;21.026;2023-04-06T21:14:40;30.40;;;17.13;;
21392;SDS011;10857;52.228;21.026;2023-04-06T21:17:07;36.00;;;19.00;;
21392;SDS011;10857;52.228;21.026;2023-04-06T21:19:34;32.20;;;17.47;;
21392;SDS011;10857;52.228;21.026;2023-04-06T21:22:02;34.17;;;18.93;;
21392;SDS011;10857;52.228;21.026;2023-04-06T21:24:29;35.30;;;19.17;;
